createdAt,value
2019-04-09T00:00:17.566Z,91.20
2019-04-09T00:03:05.731Z,91.20
2019-04-09T00:05:34.502Z,91.20
2019-04-09T00:08:06.360Z,91.20
2019-04-09T00:10:34.843Z,91.10
2019-04-09T00:13:05.419Z,91.00
2019-04-09T00:15:34.231Z,91.10
2019-04-09T00:18:03.822Z,91.10
2019-04-09T00:20:32.974Z,91.10
2019-04-09T00:23:02.113Z,91.10
2019-04-09T00:25:30.728Z,91.20
2019-04-09T00:27:59.344Z,91.30
2019-04-09T00:30:27.988Z,91.50
2019-04-09T00:32:57.250Z,91.40
2019-04-09T00:35:26.235Z,91.20
2019-04-09T00:37:54.868Z,91.30
2019-04-09T00:40:23.973Z,91.30
2019-04-09T00:42:52.884Z,91.20
2019-04-09T00:45:22.147Z,91.30
2019-04-09T00:47:51.141Z,91.30
2019-04-09T00:50:19.738Z,91.30
2019-04-09T00:52:49.098Z,91.50
2019-04-09T00:55:18.914Z,91.60
2019-04-09T00:57:47.770Z,91.60
2019-04-09T01:00:18.696Z,91.30
2019-04-09T01:02:47.389Z,91.50
2019-04-09T01:05:17.357Z,91.50
2019-04-09T01:07:46.143Z,91.40
2019-04-09T01:10:14.874Z,91.50
2019-04-09T01:12:43.529Z,91.50
2019-04-09T01:15:12.821Z,91.40
2019-04-09T01:17:41.445Z,91.30
2019-04-09T01:20:11.020Z,91.40
2019-04-09T01:22:40.126Z,91.50
2019-04-09T01:25:14.632Z,91.50
2019-04-09T01:27:45.874Z,91.50
2019-04-09T01:30:25.345Z,91.40
2019-04-09T01:32:58.472Z,91.40
2019-04-09T01:35:28.979Z,91.50
2019-04-09T01:38:02.543Z,92.00
2019-04-09T01:40:48.244Z,91.70
2019-04-09T01:43:38.770Z,91.70
2019-04-09T01:46:22.517Z,91.60
2019-04-09T01:49:09.434Z,91.90
2019-04-09T01:51:57.885Z,91.80
2019-04-09T01:54:44.292Z,91.80
2019-04-09T01:57:24.401Z,91.80
2019-04-09T02:00:04.931Z,91.80
2019-04-09T02:02:35.718Z,91.60
2019-04-09T02:05:07.842Z,91.60
2019-04-09T02:07:50.771Z,91.60
2019-04-09T02:10:49.779Z,91.60
2019-04-09T02:13:36.331Z,91.60
2019-04-09T02:16:06.993Z,91.80
2019-04-09T02:18:40.473Z,91.80
2019-04-09T02:21:11.335Z,91.40
2019-04-09T02:24:00.936Z,91.30
2019-04-09T02:26:31.414Z,91.20
2019-04-09T02:29:16.487Z,91.30
2019-04-09T02:31:49.133Z,91.40
2019-04-09T02:34:23.004Z,91.40
2019-04-09T02:36:58.168Z,91.50
2019-04-09T02:39:30.988Z,91.70
2019-04-09T02:42:16.805Z,91.70
2019-04-09T02:45:04.166Z,91.60
2019-04-09T02:47:34.634Z,91.70
2019-04-09T02:50:06.193Z,91.80
2019-04-09T02:52:40.132Z,91.80
2019-04-09T02:55:14.292Z,92.00
2019-04-09T02:57:53.964Z,91.90
2019-04-09T03:00:25.872Z,91.80
2019-04-09T03:03:05.201Z,91.70
2019-04-09T03:05:41.484Z,91.70
2019-04-09T03:08:24.007Z,91.70
2019-04-09T03:11:09.040Z,91.80
2019-04-09T03:13:43.309Z,91.80
2019-04-09T03:16:16.834Z,91.80
2019-04-09T03:19:03.122Z,91.90
2019-04-09T03:21:39.869Z,91.80
2019-04-09T03:24:14.201Z,91.80
2019-04-09T03:26:45.159Z,91.90
2019-04-09T03:29:24.519Z,91.70
2019-04-09T03:31:57.893Z,91.60
2019-04-09T03:34:38.791Z,91.70
2019-04-09T03:37:09.081Z,91.70
2019-04-09T03:39:45.819Z,91.90
2019-04-09T03:42:25.382Z,91.90
2019-04-09T03:44:55.640Z,91.90
2019-04-09T03:47:32.159Z,91.80
2019-04-09T03:50:39.893Z,91.60
2019-04-09T03:53:19.236Z,91.60
2019-04-09T03:55:53.342Z,91.70
2019-04-09T03:58:29.820Z,91.70
2019-04-09T04:01:12.632Z,91.70
2019-04-09T04:03:42.823Z,91.70
2019-04-09T04:06:30.826Z,91.60
2019-04-09T04:09:15.951Z,91.70
2019-04-09T04:11:49.894Z,91.60
2019-04-09T04:14:36.913Z,91.80
2019-04-09T04:17:24.149Z,91.80
2019-04-09T04:19:55.942Z,91.80
2019-04-09T04:22:29.297Z,91.90
2019-04-09T04:25:15.694Z,91.80
2019-04-09T04:27:58.685Z,91.70
2019-04-09T04:30:40.709Z,91.80
2019-04-09T04:33:11.242Z,91.80
2019-04-09T04:35:47.532Z,91.70
2019-04-09T04:38:20.800Z,91.70
2019-04-09T04:41:03.613Z,91.70
2019-04-09T04:43:50.653Z,91.70
2019-04-09T04:46:36.097Z,91.70
2019-04-09T04:49:22.111Z,91.70
2019-04-09T04:52:02.081Z,91.80
2019-04-09T04:54:41.437Z,91.40
2019-04-09T04:57:27.243Z,92.00
2019-04-09T04:59:58.304Z,92.10
2019-04-09T05:02:31.457Z,92.00
2019-04-09T05:05:16.672Z,92.00
2019-04-09T05:07:57.202Z,92.00
2019-04-09T05:10:27.776Z,92.00
2019-04-09T05:13:00.770Z,92.00
2019-04-09T05:15:34.024Z,92.10
2019-04-09T05:18:04.255Z,92.20
2019-04-09T05:20:53.399Z,92.40
2019-04-09T05:23:29.937Z,92.70
2019-04-09T05:26:00.134Z,92.90
2019-04-09T05:28:34.396Z,93.30
2019-04-09T05:31:08.400Z,94.00
2019-04-09T05:33:42.759Z,94.40
2019-04-09T05:36:20.078Z,94.20
2019-04-09T05:38:51.528Z,94.00
2019-04-09T05:41:22.019Z,94.00
2019-04-09T05:43:54.961Z,93.80
2019-04-09T05:46:25.879Z,93.90
2019-04-09T05:49:27.815Z,94.00
2019-04-09T05:52:02.409Z,93.80
2019-04-09T05:54:41.945Z,93.80
2019-04-09T05:57:28.641Z,93.70
2019-04-09T06:00:17.658Z,93.60
2019-04-09T06:03:04.539Z,93.50
2019-04-09T06:05:34.925Z,93.30
2019-04-09T06:08:05.629Z,93.30
2019-04-09T06:10:34.720Z,93.20
2019-04-09T06:13:03.631Z,93.40
2019-04-09T06:15:33.016Z,93.20
2019-04-09T06:18:03.228Z,93.10
2019-04-09T06:20:32.047Z,93.00
2019-04-09T06:23:01.497Z,92.80
2019-04-09T06:25:30.634Z,92.70
2019-04-09T06:27:59.329Z,92.70
2019-04-09T06:30:47.247Z,92.80
2019-04-09T06:33:23.887Z,93.00
2019-04-09T06:36:05.840Z,92.80
2019-04-09T06:38:41.837Z,92.60
2019-04-09T06:41:12.158Z,92.60
2019-04-09T06:43:45.011Z,92.70
2019-04-09T06:46:17.977Z,93.10
2019-04-09T06:48:53.841Z,93.00
2019-04-09T06:51:34.854Z,92.80
2019-04-09T06:54:04.562Z,92.90
2019-04-09T06:56:51.714Z,92.90
2019-04-09T06:59:40.206Z,92.80
2019-04-09T07:02:19.758Z,92.60
2019-04-09T07:04:52.732Z,92.60
2019-04-09T07:07:29.003Z,92.60
2019-04-09T07:10:02.072Z,92.80
2019-04-09T07:12:34.991Z,92.80
2019-04-09T07:15:33.183Z,93.10
2019-04-09T07:18:15.369Z,92.80
2019-04-09T07:20:55.130Z,92.70
2019-04-09T07:23:30.059Z,92.70
2019-04-09T07:26:03.517Z,92.40
2019-04-09T07:28:38.664Z,92.50
2019-04-09T07:31:13.703Z,92.60
2019-04-09T07:34:00.156Z,92.30
2019-04-09T07:36:34.361Z,92.00
2019-04-09T07:39:06.679Z,91.90
2019-04-09T07:41:43.346Z,92.00
2019-04-09T07:44:31.037Z,92.00
2019-04-09T07:47:18.952Z,91.80
2019-04-09T07:49:53.379Z,91.40
2019-04-09T07:52:30.389Z,91.80
2019-04-09T07:55:20.647Z,91.90
2019-04-09T07:57:54.989Z,91.20
2019-04-09T08:00:44.850Z,91.10
2019-04-09T08:03:32.411Z,91.40
2019-04-09T08:06:03.256Z,91.80
2019-04-09T08:08:37.758Z,91.80
2019-04-09T08:11:17.910Z,92.00
2019-04-09T08:14:03.865Z,91.90
2019-04-09T08:16:38.515Z,91.90
2019-04-09T08:19:24.157Z,92.10
2019-04-09T08:21:57.320Z,92.10
2019-04-09T08:24:30.775Z,92.20
2019-04-09T08:27:08.965Z,92.20
2019-04-09T08:29:42.828Z,92.00
2019-04-09T08:32:22.636Z,91.80
2019-04-09T08:34:57.418Z,92.00
2019-04-09T08:37:34.542Z,92.10
2019-04-09T08:40:09.744Z,92.20
2019-04-09T08:42:55.145Z,92.20
2019-04-09T08:45:28.999Z,92.30
2019-04-09T08:48:14.244Z,92.30
2019-04-09T08:50:43.115Z,92.20
2019-04-09T08:53:18.683Z,92.00
2019-04-09T08:56:05.808Z,92.10
2019-04-09T08:58:32.254Z,92.10
2019-04-09T09:01:32.743Z,92.10
2019-04-09T09:03:51.331Z,92.20
2019-04-09T09:06:17.003Z,92.10
2019-04-09T09:09:03.321Z,92.10
2019-04-09T09:11:37.227Z,92.10
2019-04-09T09:16:56.054Z,92.10
2019-04-09T09:19:43.143Z,92.20
2019-04-09T09:22:25.556Z,92.30
2019-04-09T09:25:09.229Z,92.40
2019-04-09T09:27:46.197Z,92.20
2019-04-09T09:30:19.643Z,92.20
2019-04-09T09:33:06.719Z,92.30
2019-04-09T09:35:36.463Z,92.70
2019-04-09T09:38:07.375Z,92.60
2019-04-09T09:40:52.613Z,92.50
2019-04-09T09:43:27.750Z,92.40
2019-04-09T09:46:17.367Z,92.40
2019-04-09T09:49:20.132Z,92.30
2019-04-09T09:52:05.589Z,92.20
2019-04-09T09:55:12.942Z,92.30
2019-04-09T09:57:46.057Z,92.50
2019-04-09T10:00:18.251Z,92.80
2019-04-09T10:02:52.038Z,92.60
2019-04-09T10:05:33.190Z,92.40
2019-04-09T10:08:06.493Z,92.40
2019-04-09T10:10:36.150Z,92.20
2019-04-09T10:13:06.912Z,92.20
2019-04-09T10:15:48.633Z,92.40
2019-04-09T10:18:22.270Z,92.40
2019-04-09T10:20:54.299Z,92.60
2019-04-09T10:23:31.052Z,92.60
2019-04-09T10:26:04.164Z,92.50
2019-04-09T10:28:33.904Z,92.40
2019-04-09T10:31:17.769Z,92.60
2019-04-09T10:33:54.118Z,92.80
2019-04-09T10:36:25.546Z,92.70
2019-04-09T10:38:59.017Z,92.70
2019-04-09T10:41:37.300Z,92.80
2019-04-09T10:44:00.138Z,92.70
2019-04-09T10:46:42.719Z,92.60
2019-04-09T10:49:29.234Z,92.60
2019-04-09T10:52:35.608Z,92.70
2019-04-09T10:55:20.622Z,92.70
2019-04-09T10:57:56.271Z,92.80
2019-04-09T11:00:37.945Z,92.70
2019-04-09T11:03:14.648Z,92.80
2019-04-09T11:05:59.369Z,92.60
2019-04-09T11:08:43.510Z,92.80
2019-04-09T11:11:20.509Z,92.30
2019-04-09T11:13:50.423Z,92.00
2019-04-09T11:16:30.221Z,91.80
2019-04-09T11:19:19.282Z,91.90
2019-04-09T11:22:05.990Z,91.90
2019-04-09T11:24:54.316Z,91.80
2019-04-09T11:27:42.257Z,91.90
2019-04-09T11:30:18.232Z,92.00
2019-04-09T11:32:48.934Z,92.00
2019-04-09T11:35:28.703Z,92.00
2019-04-09T11:38:08.058Z,91.70
2019-04-09T11:40:38.997Z,91.50
2019-04-09T11:43:15.442Z,91.30
2019-04-09T11:45:46.064Z,91.30
2019-04-09T11:48:16.315Z,91.50
2019-04-09T11:50:54.070Z,91.70
2019-04-09T11:53:42.569Z,91.50
2019-04-09T11:56:25.053Z,91.70
2019-04-09T11:59:11.359Z,91.60
2019-04-09T12:02:02.978Z,91.80
2019-04-09T12:04:36.157Z,91.80
2019-04-09T12:07:22.136Z,91.80
2019-04-09T12:10:07.957Z,91.80
2019-04-09T12:12:51.914Z,91.60
2019-04-09T12:15:25.262Z,91.50
2019-04-09T12:17:59.642Z,91.50
2019-04-09T12:20:33.559Z,91.20
2019-04-09T12:23:12.510Z,91.30
2019-04-09T12:25:42.842Z,91.20
2019-04-09T12:28:31.095Z,91.20
2019-04-09T12:31:01.809Z,91.00
2019-04-09T12:33:38.187Z,91.00
2019-04-09T12:36:26.955Z,91.00
2019-04-09T12:39:24.840Z,90.90
2019-04-09T12:41:54.688Z,90.80
2019-04-09T12:44:42.294Z,91.00
2019-04-09T12:47:30.944Z,91.20
2019-04-09T12:50:04.235Z,91.40
2019-04-09T12:52:35.598Z,91.50
2019-04-09T12:55:23.282Z,91.30
2019-04-09T12:57:57.795Z,91.10
2019-04-09T13:00:40.297Z,90.90
2019-04-09T13:03:31.166Z,91.00
2019-04-09T13:06:05.268Z,91.00
2019-04-09T13:08:44.780Z,90.80
2019-04-09T13:11:27.086Z,90.60
2019-04-09T13:13:59.231Z,90.70
2019-04-09T13:16:45.722Z,90.70
2019-04-09T13:19:42.536Z,90.60
2019-04-09T13:22:25.799Z,90.60
2019-04-09T13:24:56.862Z,90.40
2019-04-09T13:27:28.908Z,90.50
2019-04-09T13:30:15.649Z,90.40
2019-04-09T13:32:48.454Z,90.60
2019-04-09T13:35:18.586Z,90.30
2019-04-09T13:38:04.916Z,90.20
2019-04-09T13:40:39.022Z,90.30
2019-04-09T13:43:09.506Z,90.30
2019-04-09T13:45:40.108Z,90.20
2019-04-09T13:48:10.642Z,90.20
2019-04-09T13:50:55.747Z,90.00
2019-04-09T13:53:24.714Z,90.00
2019-04-09T13:55:54.999Z,90.10
2019-04-09T13:58:24.602Z,90.20
2019-04-09T14:00:54.499Z,90.30
2019-04-09T14:03:42.287Z,90.40
2019-04-09T14:06:10.828Z,90.20
2019-04-09T14:08:39.649Z,90.20
2019-04-09T14:11:08.469Z,90.00
2019-04-09T14:13:38.167Z,90.10
2019-04-09T14:16:09.158Z,90.00
2019-04-09T14:18:38.677Z,89.50
2019-04-09T14:21:08.550Z,89.80
2019-04-09T14:23:37.455Z,90.10
2019-04-09T14:26:06.283Z,90.20
2019-04-09T14:28:54.460Z,90.40
2019-04-09T14:31:24.196Z,90.20
2019-04-09T14:33:54.119Z,90.20
2019-04-09T14:36:23.086Z,90.20
2019-04-09T14:38:53.047Z,90.00
2019-04-09T14:41:22.723Z,90.00
2019-04-09T14:43:52.165Z,89.70
2019-04-09T14:46:22.853Z,89.80
2019-04-09T14:48:51.600Z,90.00
2019-04-09T14:51:21.894Z,90.20
2019-04-09T14:53:50.928Z,90.60
2019-04-09T14:56:41.648Z,91.30
2019-04-09T14:59:13.718Z,91.40
2019-04-09T15:01:42.573Z,91.40
2019-04-09T15:04:11.302Z,91.50
2019-04-09T15:06:41.088Z,91.70
2019-04-09T15:09:11.944Z,91.60
2019-04-09T15:11:40.711Z,91.70
2019-04-09T15:14:09.873Z,91.80
2019-04-09T15:16:38.943Z,91.50
2019-04-09T15:19:07.873Z,91.30
2019-04-09T15:21:50.222Z,91.20
2019-04-09T15:24:19.406Z,91.10
2019-04-09T15:26:48.106Z,91.20
2019-04-09T15:29:19.666Z,91.20
2019-04-09T15:31:48.344Z,91.30
2019-04-09T15:34:18.119Z,91.30
2019-04-09T15:36:47.639Z,91.40
2019-04-09T15:39:17.726Z,91.10
2019-04-09T15:41:46.901Z,91.00
2019-04-09T15:44:15.661Z,91.10
2019-04-09T15:46:44.381Z,91.20
2019-04-09T15:49:13.668Z,91.30
2019-04-09T15:51:43.494Z,91.20
2019-04-09T15:54:12.968Z,91.20
2019-04-09T15:56:43.328Z,91.20
2019-04-09T15:59:12.018Z,91.10
2019-04-09T16:01:41.409Z,91.10
2019-04-09T16:04:11.514Z,91.10
2019-04-09T16:06:41.036Z,90.70
2019-04-09T16:09:18.564Z,90.60
2019-04-09T16:11:50.143Z,90.70
2019-04-09T16:14:20.301Z,90.80
2019-04-09T16:16:50.970Z,90.80
2019-04-09T16:19:19.736Z,90.80
2019-04-09T16:21:48.821Z,90.60
2019-04-09T16:24:17.818Z,90.60
2019-04-09T16:26:47.495Z,90.60
2019-04-09T16:29:16.682Z,90.50
2019-04-09T16:31:45.420Z,90.60
2019-04-09T16:34:16.054Z,90.60
2019-04-09T16:36:57.666Z,90.60
2019-04-09T16:39:15.705Z,90.70
2019-04-09T16:41:45.965Z,90.60
2019-04-09T16:44:14.904Z,90.70
2019-04-09T16:46:43.440Z,90.90
2019-04-09T16:49:12.374Z,90.90
2019-04-09T16:51:41.159Z,90.90
2019-04-09T16:54:09.806Z,90.90
2019-04-09T16:56:38.355Z,91.00
2019-04-09T16:59:07.979Z,91.20
2019-04-09T17:01:37.966Z,91.50
2019-04-09T17:04:18.413Z,91.70
2019-04-09T17:06:37.783Z,91.80
2019-04-09T17:09:22.865Z,91.90
2019-04-09T17:11:39.215Z,92.10
2019-04-09T17:14:09.061Z,92.30
2019-04-09T17:16:38.389Z,92.50
2019-04-09T17:19:07.184Z,92.70
2019-04-09T17:21:35.837Z,92.90
2019-04-09T17:24:05.828Z,93.60
2019-04-09T17:26:35.005Z,93.90
2019-04-09T17:29:04.413Z,94.20
2019-04-09T17:31:33.423Z,94.80
2019-04-09T17:34:01.998Z,94.80
2019-04-09T17:36:32.332Z,94.80
2019-04-09T17:39:01.364Z,94.90
2019-04-09T17:41:30.504Z,95.70
2019-04-09T17:44:00.189Z,96.10
2019-04-09T17:46:29.546Z,96.10
2019-04-09T17:49:00.362Z,96.10
2019-04-09T17:51:29.203Z,96.20
2019-04-09T17:53:57.750Z,96.40
2019-04-09T17:56:26.418Z,96.50
2019-04-09T17:58:55.051Z,96.60
2019-04-09T18:01:24.302Z,96.60
2019-04-09T18:03:53.723Z,96.40
2019-04-09T18:06:23.558Z,96.20
2019-04-09T18:08:52.930Z,96.10
2019-04-09T18:11:21.745Z,96.20
2019-04-09T18:13:50.791Z,96.20
2019-04-09T18:16:38.723Z,96.10
2019-04-09T18:19:09.878Z,96.00
2019-04-09T18:21:38.654Z,96.00
2019-04-09T18:24:08.983Z,95.60
2019-04-09T18:26:38.847Z,95.70
2019-04-09T18:29:07.546Z,95.70
2019-04-09T18:31:36.697Z,95.60
2019-04-09T18:34:07.039Z,95.40
2019-04-09T18:36:36.765Z,95.90
2019-04-09T18:39:25.614Z,96.40
2019-04-09T18:41:54.752Z,96.90
2019-04-09T18:44:24.836Z,97.80
2019-04-09T18:46:53.641Z,97.50
2019-04-09T18:49:23.387Z,97.30
2019-04-09T18:51:53.158Z,97.00
2019-04-09T18:54:22.198Z,97.00
2019-04-09T18:56:50.807Z,96.80
2019-04-09T18:59:19.428Z,96.70
2019-04-09T19:01:49.073Z,96.80
2019-04-09T19:04:19.277Z,96.90
2019-04-09T19:06:48.685Z,96.80
2019-04-09T19:09:19.821Z,97.00
2019-04-09T19:11:48.907Z,96.80
2019-04-09T19:14:18.079Z,96.90
2019-04-09T19:16:46.710Z,97.00
2019-04-09T19:19:16.034Z,96.90
2019-04-09T19:21:45.037Z,96.70
2019-04-09T19:24:33.379Z,96.70
2019-04-09T19:27:03.199Z,96.70
2019-04-09T19:29:32.847Z,96.70
2019-04-09T19:32:02.151Z,96.60
2019-04-09T19:34:31.799Z,96.50
2019-04-09T19:37:01.000Z,96.50
2019-04-09T19:39:29.751Z,96.50
2019-04-09T19:42:08.908Z,96.50
2019-04-09T19:44:29.528Z,96.50
2019-04-09T19:46:58.319Z,96.50
2019-04-09T19:49:27.005Z,96.40
2019-04-09T19:51:55.780Z,96.30
2019-04-09T19:54:24.701Z,96.30
2019-04-09T19:56:53.502Z,96.30
2019-04-09T19:59:24.319Z,96.10
2019-04-09T20:01:52.738Z,96.30
2019-04-09T20:04:21.343Z,96.20
2019-04-09T20:07:10.111Z,96.10
2019-04-09T20:09:39.994Z,95.90
2019-04-09T20:12:09.106Z,95.80
2019-04-09T20:14:38.858Z,95.60
2019-04-09T20:17:09.565Z,96.10
2019-04-09T20:19:39.392Z,95.80
2019-04-09T20:22:08.156Z,95.80
2019-04-09T20:24:36.706Z,95.80
2019-04-09T20:27:06.758Z,95.80
2019-04-09T20:29:35.383Z,95.80
2019-04-09T20:32:05.063Z,95.70
2019-04-09T20:34:34.377Z,95.80
2019-04-09T20:37:03.309Z,95.90
2019-04-09T20:39:39.226Z,95.90
2019-04-09T20:42:02.467Z,95.90
2019-04-09T20:44:31.321Z,95.90
2019-04-09T20:47:00.333Z,95.80
2019-04-09T20:49:30.436Z,95.80
2019-04-09T20:51:59.290Z,95.80
2019-04-09T20:54:37.196Z,95.90
2019-04-09T20:57:05.839Z,95.90
2019-04-09T20:59:42.503Z,96.00
2019-04-09T21:02:18.026Z,96.10
2019-04-09T21:04:47.880Z,96.10
2019-04-09T21:07:16.652Z,95.90
2019-04-09T21:09:47.993Z,95.90
2019-04-09T21:12:17.151Z,95.90
2019-04-09T21:14:46.900Z,95.90
2019-04-09T21:17:16.097Z,95.90
2019-04-09T21:19:46.347Z,95.90
2019-04-09T21:22:14.895Z,95.90
2019-04-09T21:24:43.764Z,96.00
2019-04-09T21:27:12.528Z,96.00
2019-04-09T21:29:43.264Z,95.90
2019-04-09T21:32:11.998Z,95.90
2019-04-09T21:34:40.641Z,96.10
2019-04-09T21:37:15.592Z,96.00
2019-04-09T21:39:44.518Z,96.00
2019-04-09T21:42:13.875Z,95.90
2019-04-09T21:44:42.862Z,95.90
2019-04-09T21:47:12.152Z,95.80
2019-04-09T21:49:40.688Z,96.20
2019-04-09T21:52:09.274Z,95.90
2019-04-09T21:54:37.879Z,95.80
2019-04-09T21:57:07.084Z,95.80
2019-04-09T21:59:37.332Z,95.90
2019-04-09T22:02:06.607Z,95.90
2019-04-09T22:04:35.370Z,95.80
2019-04-09T22:07:04.507Z,95.80
2019-04-09T22:09:33.102Z,96.00
2019-04-09T22:12:01.812Z,95.70
2019-04-09T22:14:30.544Z,95.90
2019-04-09T22:16:59.515Z,96.10
2019-04-09T22:19:28.346Z,96.00
2019-04-09T22:21:56.976Z,96.20
2019-04-09T22:24:25.774Z,96.20
2019-04-09T22:26:54.820Z,96.00
2019-04-09T22:29:23.368Z,96.20
2019-04-09T22:31:51.970Z,96.20
2019-04-09T22:34:20.574Z,96.30
2019-04-09T22:36:49.370Z,96.50
2019-04-09T22:39:18.016Z,96.40
2019-04-09T22:41:46.691Z,96.30
2019-04-09T22:44:22.631Z,96.40
2019-04-09T22:46:53.013Z,96.50
2019-04-09T22:49:22.015Z,96.50
2019-04-09T22:52:09.935Z,96.40
2019-04-09T22:54:38.498Z,96.10
2019-04-09T22:57:07.472Z,96.10
2019-04-09T22:59:37.530Z,96.10
2019-04-09T23:02:10.778Z,96.20
2019-04-09T23:04:41.072Z,96.20
2019-04-09T23:07:20.594Z,96.00
2019-04-09T23:09:51.276Z,96.00
2019-04-09T23:12:27.967Z,96.00
2019-04-09T23:14:56.933Z,96.00
2019-04-09T23:17:26.115Z,96.00
2019-04-09T23:19:54.920Z,96.00
2019-04-09T23:22:24.403Z,96.20
2019-04-09T23:24:53.346Z,96.20
2019-04-09T23:27:22.064Z,96.10
2019-04-09T23:29:51.043Z,96.10
2019-04-09T23:32:19.786Z,96.10
2019-04-09T23:34:48.432Z,96.00
2019-04-09T23:37:17.534Z,96.00
2019-04-09T23:39:46.700Z,95.80
2019-04-09T23:42:16.904Z,95.70
2019-04-09T23:44:45.985Z,95.70
2019-04-09T23:47:15.131Z,95.70
2019-04-09T23:49:44.006Z,95.70
2019-04-09T23:52:13.177Z,95.70
2019-04-09T23:54:42.513Z,95.70
2019-04-09T23:57:11.927Z,95.70
2019-04-09T23:59:40.564Z,95.60
